Time;durP1;ratioP1;P1;durP2;ratioP2;P2;SDS_P1;SDS_P2;PMS_P1;PMS_P2;Temp;Humidity;BMP_temperature;BMP_pressure;BME280_temperature;BME280_humidity;BME280_pressure;Samples;Min_cycle;Max_cycle;Signal;HPM_P1;HPM_P2
2021/01/23 00:01:13;;;;;;;;;;;;;;;16.35;63.21;100639.06;5036541;28;1404;-57
2021/01/23 00:03:38;;;;;;;;;;;;;;;16.33;64.00;100643.69;5036756;28;1133;-56
2021/01/23 00:06:03;;;;;;;;;;;;;;;16.26;63.97;100649.50;5036819;28;1148;-64
2021/01/23 00:08:29;;;;;;;;;;;;;;;16.23;64.21;100643.56;5043504;28;1475;-70
2021/01/23 00:10:54;;;;;;;;;;;;;;;16.22;64.80;100647.22;5035842;28;794;-57
2021/01/23 00:13:20;;;;;;;;;;;;;;;16.19;64.84;100634.09;5038514;28;1886;-70
2021/01/23 00:15:45;;;;;;;;;;;;;;;16.21;63.56;100651.69;5052188;28;1329;-70
2021/01/23 00:18:10;;;;;;;;;;;;;;;16.15;64.72;100628.16;5058283;28;852;-57
2021/01/23 00:20:36;;;;;;;;;;;;;;;16.18;63.87;100641.25;5058270;28;785;-57
2021/01/23 00:23:01;;;;;;;;;;;;;;;16.15;64.43;100636.16;5057776;28;1470;-70
2021/01/23 00:25:27;;;;;;;;;;;;;;;16.18;64.78;100643.09;5057859;28;1558;-69
2021/01/23 00:27:52;;;;;;;;;;;;;;;16.12;63.95;100644.41;5058099;28;789;-70
2021/01/23 00:30:17;;;;;;;;;;;;;;;16.07;63.61;100641.25;5039506;28;1482;-56
2021/01/23 00:32:43;;;;;;;;;;;;;;;16.06;63.94;100645.72;5057106;28;1482;-57
2021/01/23 00:35:08;;;;;;;;;;;;;;;16.09;64.70;100639.31;5040175;28;1922;-69
2021/01/23 00:37:34;;;;;;;;;;;;;;;16.05;63.72;100637.84;5057267;28;1403;-69
2021/01/23 00:39:59;;;;;;;;;;;;;;;16.03;64.76;100623.78;5040163;28;1264;-70
2021/01/23 00:42:25;;;;;;;;;;;;;;;16.08;64.01;100645.63;5057312;28;1495;-69
2021/01/23 00:44:50;;;;;;;;;;;;;;;16.06;64.73;100628.88;5039927;28;1125;-56
2021/01/23 00:47:15;;;;;;;;;;;;;;;16.02;63.69;100630.09;5056690;28;1157;-69
2021/01/23 00:49:41;;;;;;;;;;;;;;;16.01;64.25;100631.88;5056667;28;781;-57
2021/01/23 00:52:06;;;;;;;;;;;;;;;15.99;64.65;100635.66;5057390;28;1408;-65
2021/01/23 00:54:31;;;;;;;;;;;;;;;15.98;64.83;100631.31;5039842;28;1964;-56
2021/01/23 00:56:57;;;;;;;;;;;;;;;15.99;65.38;100630.31;5057278;28;1676;-69
2021/01/23 00:59:22;;;;;;;;;;;;;;;15.98;64.66;100624.16;5057232;28;1495;-69
2021/01/23 01:01:48;;;;;;;;;;;;;;;15.96;64.73;100622.56;5057001;28;1337;-69
2021/01/23 01:04:13;;;;;;;;;;;;;;;15.96;65.32;100625.25;5057458;28;892;-69
2021/01/23 01:06:38;;;;;;;;;;;;;;;15.97;65.04;100625.09;5057268;28;1336;-56
2021/01/23 01:09:04;;;;;;;;;;;;;;;15.94;64.12;100614.69;5056386;28;1498;-70
2021/01/23 01:11:29;;;;;;;;;;;;;;;15.91;64.99;100610.41;5056501;28;1447;-69
2021/01/23 01:13:55;;;;;;;;;;;;;;;15.93;65.24;100618.31;5056650;28;1886;-69
2021/01/23 01:16:20;;;;;;;;;;;;;;;15.93;64.35;100612.13;5039171;28;1552;-57
2021/01/23 01:18:45;;;;;;;;;;;;;;;15.91;65.41;100607.75;5056567;28;1379;-57
2021/01/23 01:21:11;;;;;;;;;;;;;;;15.88;65.30;100605.34;5056848;28;1478;-56
2021/01/23 01:23:36;;;;;;;;;;;;;;;15.85;65.35;100605.56;5056865;28;1673;-69
2021/01/23 01:26:02;;;;;;;;;;;;;;;15.83;64.58;100596.00;5056570;28;1419;-58
2021/01/23 01:28:27;;;;;;;;;;;;;;;15.83;64.42;100596.84;5056096;28;1419;-69
2021/01/23 01:30:52;;;;;;;;;;;;;;;15.82;64.69;100597.81;5056227;28;1332;-57
2021/01/23 01:33:18;;;;;;;;;;;;;;;15.81;65.06;100590.78;5056194;28;1455;-56
2021/01/23 01:35:43;;;;;;;;;;;;;;;15.84;64.15;100603.88;5056175;28;1910;-57
2021/01/23 01:38:08;;;;;;;;;;;;;;;15.85;64.82;100602.06;5056253;28;1415;-69
2021/01/23 01:40:34;;;;;;;;;;;;;;;15.81;64.41;100598.78;5056306;28;1438;-68
2021/01/23 01:42:59;;;;;;;;;;;;;;;15.81;65.15;100589.94;5035330;28;1333;-70
2021/01/23 01:45:25;;;;;;;;;;;;;;;15.80;65.25;100588.25;5045954;28;1376;-69
2021/01/23 01:47:50;;;;;;;;;;;;;;;15.80;64.99;100586.41;5056232;28;1435;-56
2021/01/23 01:50:16;;;;;;;;;;;;;;;15.77;64.19;100591.97;5056143;28;1506;-70
2021/01/23 01:52:43;;;;;;;;;;;;;;;15.81;64.11;100590.78;5055909;28;1519;-56
2021/01/23 01:55:09;;;;;;;;;;;;;;;15.79;64.47;100584.72;5055894;28;1968;-56
2021/01/23 01:57:34;;;;;;;;;;;;;;;15.79;64.17;100584.72;5055232;28;1481;-57
2021/01/23 01:59:59;;;;;;;;;;;;;;;15.80;65.18;100580.25;5054471;28;1569;-57
2021/01/23 02:02:31;;;;;;;;;;;;;;;15.79;65.26;100574.03;5054939;28;1534;-57
2021/01/23 02:04:56;;;;;;;;;;;;;;;15.90;65.56;100582.06;5056357;28;1187;-68
2021/01/23 02:07:45;;;;;;;;;;;;;;;15.98;65.38;100581.47;5054570;28;1368;-69
2021/01/23 02:10:29;;;;;;;;;;;;;;;15.99;66.69;100569.81;5045320;28;1430;-70
2021/01/23 02:13:09;;;;;;;;;;;;;;;16.02;65.26;100574.09;5054638;28;1521;-57
2021/01/23 02:15:39;;;;;;;;;;;;;;;15.93;65.93;100583.63;5054070;28;1889;-70
2021/01/23 02:18:07;;;;;;;;;;;;;;;15.87;65.51;100570.78;5037101;28;1267;-57
2021/01/23 02:21:01;;;;;;;;;;;;;;;15.85;66.16;100578.91;5054597;28;1437;-57
2021/01/23 02:23:30;;;;;;;;;;;;;;;15.81;65.31;100579.25;5020884;28;1367;-57
2021/01/23 02:26:03;;;;;;;;;;;;;;;15.78;65.67;100567.03;5054363;28;1175;-56
2021/01/23 02:28:47;;;;;;;;;;;;;;;15.75;65.69;100571.75;5052181;28;1177;-70
2021/01/23 02:31:16;;;;;;;;;;;;;;;15.71;66.15;100557.78;5050942;28;1346;-70
2021/01/23 02:33:43;;;;;;;;;;;;;;;15.69;65.32;100557.88;5053883;28;1909;-57
2021/01/23 02:36:10;;;;;;;;;;;;;;;15.72;65.27;100575.47;5054312;28;1380;-70
2021/01/23 02:38:36;;;;;;;;;;;;;;;15.65;65.30;100561.75;5054266;28;1330;-70
2021/01/23 02:41:02;;;;;;;;;;;;;;;15.65;66.20;100560.91;5054824;28;1247;-70
2021/01/23 02:43:28;;;;;;;;;;;;;;;15.69;66.18;100573.88;5052040;28;1423;-57
2021/01/23 02:45:53;;;;;;;;;;;;;;;15.63;65.14;100557.50;5058778;28;1393;-57
2021/01/23 02:48:19;;;;;;;;;;;;;;;15.66;65.25;100557.28;5070165;28;1532;-70
2021/01/23 02:50:45;;;;;;;;;;;;;;;15.65;66.01;100552.91;5062808;28;1488;-57
2021/01/23 02:53:15;;;;;;;;;;;;;;;15.64;64.86;100545.91;5054653;28;1481;-57
2021/01/23 02:55:44;;;;;;;;;;;;;;;15.65;65.78;100539.59;5053912;28;1893;-57
2021/01/23 02:58:09;;;;;;;;;;;;;;;15.64;65.18;100546.75;5055168;28;785;-57
2021/01/23 03:03:11;;;;;;;;;;;;;;;15.65;65.74;100544.91;5048119;28;1360;-55
2021/01/23 03:05:37;;;;;;;;;;;;;;;15.67;65.65;100559.81;5053347;28;1718;-55
2021/01/23 03:08:02;;;;;;;;;;;;;;;15.67;65.90;100545.66;5053721;28;1433;-55
2021/01/23 03:10:34;;;;;;;;;;;;;;;15.68;65.49;100534.03;5066985;22;3631;-70
2021/01/23 03:12:59;;;;;;;;;;;;;;;15.70;65.07;100554.25;5055192;28;846;-57
2021/01/23 03:15:24;;;;;;;;;;;;;;;15.66;65.01;100536.81;5054673;28;1914;-56
2021/01/23 03:17:49;;;;;;;;;;;;;;;15.64;65.52;100530.75;5055175;28;856;-70
2021/01/23 03:20:15;;;;;;;;;;;;;;;15.63;65.50;100538.84;5054977;28;825;-69
2021/01/23 03:22:40;;;;;;;;;;;;;;;15.58;65.52;100523.22;5054338;28;1373;-57
2021/01/23 03:25:06;;;;;;;;;;;;;;;15.58;65.71;100522.34;5054575;28;1498;-70
2021/01/23 03:27:31;;;;;;;;;;;;;;;15.59;65.96;100526.75;5054419;28;1517;-56
2021/01/23 03:29:56;;;;;;;;;;;;;;;15.57;65.85;100542.00;5043275;28;1459;-57
2021/01/23 03:32:22;;;;;;;;;;;;;;;15.54;65.44;100531.56;5054486;28;1462;-70
2021/01/23 03:34:47;;;;;;;;;;;;;;;15.55;65.94;100528.78;5054158;28;1885;-57
2021/01/23 03:37:13;;;;;;;;;;;;;;;15.56;65.13;100541.16;5054353;28;1400;-57
2021/01/23 03:39:38;;;;;;;;;;;;;;;15.54;66.02;100523.56;5042347;28;1403;-70
2021/01/23 03:42:05;;;;;;;;;;;;;;;15.50;65.09;100521.16;5054406;28;1415;-69
2021/01/23 03:44:30;;;;;;;;;;;;;;;15.51;66.00;100522.84;5038043;28;1498;-70
2021/01/23 03:46:55;;;;;;;;;;;;;;;15.49;65.73;100508.78;5057844;28;1427;-69
2021/01/23 03:49:21;;;;;;;;;;;;;;;15.52;65.88;100527.22;5058487;28;1506;-65
2021/01/23 03:51:46;;;;;;;;;;;;;;;15.47;65.56;100521.38;5058568;28;1436;-57
2021/01/23 03:54:11;;;;;;;;;;;;;;;15.45;65.04;100512.66;5044740;28;1958;-57
2021/01/23 03:56:37;;;;;;;;;;;;;;;15.45;65.11;100523.31;5055667;28;1506;-57
2021/01/23 03:59:02;;;;;;;;;;;;;;;15.47;65.14;100516.06;5051499;28;1557;-69
2021/01/23 04:01:28;;;;;;;;;;;;;;;15.46;64.66;100518.84;5058143;28;1383;-57
2021/01/23 04:03:53;;;;;;;;;;;;;;;15.47;64.95;100513.38;5058281;28;1416;-56
2021/01/23 04:06:18;;;;;;;;;;;;;;;15.48;65.00;100515.09;5057685;28;1534;-68
2021/01/23 04:08:44;;;;;;;;;;;;;;;15.51;65.78;100514.84;5057453;28;1463;-57
2021/01/23 04:11:09;;;;;;;;;;;;;;;15.55;66.14;100514.63;5056889;28;1558;-57
2021/01/23 04:13:34;;;;;;;;;;;;;;;15.53;66.18;100498.75;5056759;28;1926;-70
2021/01/23 04:16:00;;;;;;;;;;;;;;;15.54;65.40;100518.25;5057693;28;1322;-71
2021/01/23 04:18:25;;;;;;;;;;;;;;;15.52;66.09;100513.06;5057144;28;1352;-56
2021/01/23 04:20:50;;;;;;;;;;;;;;;15.52;65.37;100513.88;5058017;28;1396;-69
2021/01/23 04:23:16;;;;;;;;;;;;;;;15.48;65.16;100499.09;5057823;28;1502;-57
2021/01/23 04:25:41;;;;;;;;;;;;;;;15.47;65.11;100494.72;5058397;28;766;-57
2021/01/23 04:28:06;;;;;;;;;;;;;;;15.47;65.40;100505.38;5056992;28;1487;-57
2021/01/23 04:30:32;;;;;;;;;;;;;;;15.45;65.20;100495.81;5056210;28;1568;-56
2021/01/23 04:32:57;;;;;;;;;;;;;;;15.43;66.12;100509.25;5057311;28;1423;-70
2021/01/23 04:35:22;;;;;;;;;;;;;;;15.44;65.38;100516.31;5057875;28;1953;-70
2021/01/23 04:37:48;;;;;;;;;;;;;;;15.48;65.63;100514.25;5057529;28;1459;-70
2021/01/23 04:40:13;;;;;;;;;;;;;;;15.45;66.26;100520.66;5056637;28;1407;-70
2021/01/23 04:42:40;;;;;;;;;;;;;;;15.43;66.06;100514.59;5057466;28;1352;-67
2021/01/23 04:45:05;;;;;;;;;;;;;;;15.42;65.67;100515.56;5057390;28;1396;-57
2021/01/23 04:47:31;;;;;;;;;;;;;;;15.39;65.41;100497.16;5057507;28;1471;-70
2021/01/23 04:49:56;;;;;;;;;;;;;;;15.39;65.80;100496.31;5039924;28;1570;-69
2021/01/23 04:52:21;;;;;;;;;;;;;;;15.39;66.35;100505.13;5039000;28;1433;-57
2021/01/23 04:54:47;;;;;;;;;;;;;;;15.42;67.07;100515.56;5055219;28;1882;-57
2021/01/23 04:57:12;;;;;;;;;;;;;;;15.41;68.29;100505.88;5056110;28;1582;-57
2021/01/23 04:59:37;;;;;;;;;;;;;;;15.45;67.54;100499.34;5037923;28;1467;-57
2021/01/23 05:02:15;;;;;;;;;;;;;;;15.43;67.86;100506.59;5055670;28;1424;-72
2021/01/23 05:04:46;;;;;;;;;;;;;;;15.42;67.68;100499.59;5055329;28;1468;-70
2021/01/23 05:07:11;;;;;;;;;;;;;;;15.45;66.95;100499.34;5056520;28;1416;-57
2021/01/23 05:09:38;;;;;;;;;;;;;;;15.47;68.02;100489.41;5056242;28;1385;-72
2021/01/23 05:12:03;;;;;;;;;;;;;;;15.41;67.31;100487.22;5056138;28;1499;-70
2021/01/23 05:14:29;;;;;;;;;;;;;;;15.38;67.30;100490.13;5056637;28;1976;-70
2021/01/23 05:17:02;;;;;;;;;;;;;;;15.35;67.36;100490.34;5056770;28;1582;-57
2021/01/23 05:19:39;;;;;;;;;;;;;;;15.34;68.07;100474.47;5039517;28;823;-56
2021/01/23 05:22:04;;;;;;;;;;;;;;;15.35;68.48;100490.34;5056890;28;1411;-57
2021/01/23 05:24:46;;;;;;;;;;;;;;;15.39;67.10;100485.66;5039189;28;1440;-69
2021/01/23 05:27:11;;;;;;;;;;;;;;;15.44;66.41;100495.00;5057210;28;826;-62
2021/01/23 05:29:51;;;;;;;;;;;;;;;15.44;66.11;100479.00;5039668;28;777;-58
2021/01/23 05:32:17;;;;;;;;;;;;;;;15.42;66.34;100472.94;5056599;28;1389;-70
2021/01/23 05:34:42;;;;;;;;;;;;;;;15.41;66.25;100467.72;5056276;28;1893;-70
2021/01/23 05:37:08;;;;;;;;;;;;;;;15.40;66.31;100474.00;5056745;28;1470;-57
2021/01/23 05:39:47;;;;;;;;;;;;;;;15.44;66.99;100478.16;5056640;28;1352;-70
2021/01/23 05:42:12;;;;;;;;;;;;;;;15.38;66.99;100470.63;5056540;28;1366;-57
2021/01/23 05:44:38;;;;;;;;;;;;;;;15.41;66.28;100484.56;5056404;28;1365;-69
2021/01/23 05:47:24;;;;;;;;;;;;;;;15.39;66.02;100469.66;5056241;28;1396;-70
2021/01/23 05:49:50;;;;;;;;;;;;;;;15.36;66.32;100452.09;5054586;28;2093;-70
2021/01/23 05:52:15;;;;;;;;;;;;;;;15.38;67.10;100479.47;5051054;28;1408;-57
2021/01/23 05:54:41;;;;;;;;;;;;;;;15.37;66.41;100477.75;5050621;28;1946;-57
2021/01/23 05:57:07;;;;;;;;;;;;;;;15.40;65.95;100472.22;5033849;28;1570;-61
2021/01/23 05:59:33;;;;;;;;;;;;;;;15.35;67.13;100466.38;5055746;28;1487;-69
2021/01/23 06:01:58;;;;;;;;;;;;;;;15.36;66.60;100470.75;5055947;28;1554;-69
2021/01/23 06:04:25;;;;;;;;;;;;;;;15.35;66.84;100457.53;5055946;28;1619;-69
2021/01/23 06:06:50;;;;;;;;;;;;;;;15.37;66.28;100460.94;5071870;28;1269;-57
2021/01/23 06:09:32;;;;;;;;;;;;;;;15.35;66.39;100458.38;5055235;28;1384;-57
2021/01/23 06:11:57;;;;;;;;;;;;;;;15.34;65.77;100458.50;5055946;28;1181;-57
2021/01/23 06:14:39;;;;;;;;;;;;;;;15.35;66.29;100463.72;5055640;28;1914;-69
2021/01/23 06:17:06;;;;;;;;;;;;;;;15.36;66.36;100452.09;5038263;28;831;-69
2021/01/23 06:19:31;;;;;;;;;;;;;;;15.38;66.40;100458.16;5054704;28;1448;-69
2021/01/23 06:21:56;;;;;;;;;;;;;;;15.36;66.19;100457.44;5055588;28;1503;-69
2021/01/23 06:24:31;;;;;;;;;;;;;;;15.37;65.63;100455.59;5055529;28;1511;-57
2021/01/23 06:26:56;;;;;;;;;;;;;;;15.37;66.66;100450.28;5055602;28;1499;-69
2021/01/23 06:29:37;;;;;;;;;;;;;;;15.32;66.67;100453.31;5055169;28;1488;-69
2021/01/23 06:32:11;;;;;;;;;;;;;;;15.32;66.60;100443.50;5055319;28;1499;-57
2021/01/23 06:34:43;;;;;;;;;;;;;;;15.33;65.98;100439.00;5038056;28;1895;-69
2021/01/23 06:37:29;;;;;;;;;;;;;;;15.36;65.59;100444.13;5055300;28;1295;-57
2021/01/23 06:40:03;;;;;;;;;;;;;;;15.35;65.44;100447.72;5055554;28;806;-57
2021/01/23 06:42:29;;;;;;;;;;;;;;;15.34;65.51;100456.72;5055158;28;1523;-57
2021/01/23 06:44:54;;;;;;;;;;;;;;;15.37;65.49;100461.78;5055067;28;1444;-57
2021/01/23 06:47:20;;;;;;;;;;;;;;;15.35;65.51;100445.06;5055089;28;1648;-69
2021/01/23 06:49:45;;;;;;;;;;;;;;;15.36;66.15;100440.56;5054692;28;1404;-69
2021/01/23 06:52:11;;;;;;;;;;;;;;;15.34;65.47;100440.72;5054782;28;1563;-57
2021/01/23 06:54:37;;;;;;;;;;;;;;;15.34;66.33;100440.72;5054636;28;1947;-69
2021/01/23 06:57:04;;;;;;;;;;;;;;;15.36;65.15;100435.25;5054832;28;1918;-57
2021/01/23 06:59:30;;;;;;;;;;;;;;;15.33;66.07;100433.69;5054806;28;1566;-57
2021/01/23 07:02:07;;;;;;;;;;;;;;;15.38;65.31;100436.84;5037253;28;1640;-69
2021/01/23 07:04:33;;;;;;;;;;;;;;;15.42;65.79;100432.97;5055129;28;1423;-68
2021/01/23 07:06:59;;;;;;;;;;;;;;;15.43;65.55;100431.16;5054836;28;1332;-57
2021/01/23 07:09:43;;;;;;;;;;;;;;;15.47;65.49;100432.59;5053820;28;1605;-57
2021/01/23 07:12:08;;;;;;;;;;;;;;;15.70;64.54;100425.47;5052794;28;1343;-58
2021/01/23 07:14:35;;;;;;;;;;;;;;;16.21;63.38;100434.72;5046612;28;1918;-64
2021/01/23 07:17:00;;;;;;;;;;;;;;;16.85;62.20;100434.78;5043897;28;1484;-58
2021/01/23 07:19:26;;;;;;;;;;;;;;;17.38;60.77;100430.28;5050844;28;1515;-63
2021/01/23 07:21:52;;;;;;;;;;;;;;;17.95;59.37;100422.69;5052807;28;1530;-65
2021/01/23 07:24:18;;;;;;;;;;;;;;;18.40;57.99;100409.66;5050246;28;1254;-56
2021/01/23 07:26:43;;;;;;;;;;;;;;;18.87;57.14;100408.94;5054279;28;1733;-69
2021/01/23 07:29:09;;;;;;;;;;;;;;;19.17;56.62;100415.06;5051141;28;1523;-58
2021/01/23 07:31:34;;;;;;;;;;;;;;;19.37;56.05;100411.34;5050675;28;1358;-67
2021/01/23 07:34:01;;;;;;;;;;;;;;;19.51;55.89;100406.50;5048943;28;1964;-57
2021/01/23 07:36:41;;;;;;;;;;;;;;;19.67;55.79;100406.69;5049778;28;1444;-69
2021/01/23 07:39:13;;;;;;;;;;;;;;;19.83;55.13;100398.03;5048832;28;1468;-73
2021/01/23 07:41:55;;;;;;;;;;;;;;;19.94;55.23;100402.38;5036214;28;1298;-61
2021/01/23 07:44:24;;;;;;;;;;;;;;;19.99;54.81;100389.31;5048805;28;1395;-74
2021/01/23 07:46:49;;;;;;;;;;;;;;;20.09;54.39;100390.09;5052268;28;1566;-59
2021/01/23 07:49:26;;;;;;;;;;;;;;;20.19;54.66;100376.59;5054859;28;1402;-65
2021/01/23 07:51:52;;;;;;;;;;;;;;;19.48;56.87;100384.34;5048947;28;1440;-57
2021/01/23 07:54:17;;;;;;;;;;;;;;;19.57;57.84;100373.72;5022896;28;1961;-58
2021/01/23 07:56:53;;;;;;;;;;;;;;;19.84;56.74;100371.06;5035661;28;1345;-74
2021/01/23 07:59:18;;;;;;;;;;;;;;;19.91;56.54;100373.97;5043061;28;1593;-57
2021/01/23 08:01:44;;;;;;;;;;;;;;;19.82;56.55;100378.41;5050006;28;1498;-73
2021/01/23 08:04:28;;;;;;;;;;;;;;;19.84;56.60;100373.75;5052929;28;1666;-57
2021/01/23 08:07:12;;;;;;;;;;;;;;;19.85;56.66;100377.25;5052809;28;1423;-57
2021/01/23 08:09:38;;;;;;;;;;;;;;;19.82;56.52;100365.00;5049671;28;1511;-71
2021/01/23 08:12:03;;;;;;;;;;;;;;;19.81;56.94;100359.78;5053480;28;1169;-57
2021/01/23 08:14:29;;;;;;;;;;;;;;;19.78;56.50;100377.03;5051948;28;1974;-72
2021/01/23 08:16:54;;;;;;;;;;;;;;;19.75;56.85;100355.00;5048049;28;1641;-57
2021/01/23 08:19:20;;;;;;;;;;;;;;;19.78;56.59;100358.25;5053712;28;1520;-73
2021/01/23 08:22:05;;;;;;;;;;;;;;;19.79;56.60;100357.25;5051825;28;1466;-57
2021/01/23 08:24:30;;;;;;;;;;;;;;;19.80;56.70;100363.47;5043218;28;1320;-58
2021/01/23 08:27:00;;;;;;;;;;;;;;;19.83;56.85;100380.09;5036029;28;1167;-58
2021/01/23 08:29:25;;;;;;;;;;;;;;;19.86;56.82;100368.22;5046856;28;1539;-70
2021/01/23 08:32:00;;;;;;;;;;;;;;;19.90;56.51;100376.84;5052096;28;1442;-69
2021/01/23 08:34:25;;;;;;;;;;;;;;;19.97;56.06;100368.00;5054667;28;1953;-65
2021/01/23 08:36:51;;;;;;;;;;;;;;;20.05;56.42;100364.56;5050743;28;1408;-73
2021/01/23 08:39:17;;;;;;;;;;;;;;;20.07;56.47;100362.56;5056353;28;1464;-66
2021/01/23 08:41:43;;;;;;;;;;;;;;;20.06;55.96;100352.84;5059246;28;1249;-66
2021/01/23 08:44:09;;;;;;;;;;;;;;;19.92;56.70;100348.00;5049756;28;1487;-66
2021/01/23 08:46:34;;;;;;;;;;;;;;;19.53;57.85;100362.44;5055989;28;1540;-69
2021/01/23 08:49:00;;;;;;;;;;;;;;;19.63;58.05;100357.03;5039750;28;1468;-68
2021/01/23 08:51:25;;;;;;;;;;;;;;;19.65;57.78;100349.66;5055011;28;1408;-57
2021/01/23 08:53:51;;;;;;;;;;;;;;;19.48;58.30;100349.47;5055318;28;1893;-56
2021/01/23 08:56:16;;;;;;;;;;;;;;;19.34;58.88;100363.38;5054977;28;1206;-57
2021/01/23 08:58:41;;;;;;;;;;;;;;;19.41;58.39;100352.91;5053814;28;1693;-57
2021/01/23 09:01:07;;;;;;;;;;;;;;;19.40;58.58;100345.88;5053065;28;1413;-56
2021/01/23 09:03:33;;;;;;;;;;;;;;;19.44;58.43;100334.69;5052883;28;1550;-56
2021/01/23 09:05:59;;;;;;;;;;;;;;;19.43;58.73;100351.75;5053956;28;1523;-57
2021/01/23 09:08:24;;;;;;;;;;;;;;;19.39;58.84;100342.31;5029943;28;1473;-57
2021/01/23 09:10:49;;;;;;;;;;;;;;;19.45;58.84;100336.34;5055054;28;1215;-59
2021/01/23 09:13:14;;;;;;;;;;;;;;;19.39;58.91;100350.38;5050326;28;1564;-65
2021/01/23 09:15:40;;;;;;;;;;;;;;;19.41;58.95;100343.00;5046037;28;1971;-65
2021/01/23 09:18:05;;;;;;;;;;;;;;;19.41;58.67;100356.44;5047590;28;1436;-57
2021/01/23 09:20:31;;;;;;;;;;;;;;;19.52;58.63;100355.41;5051756;28;1574;-58
2021/01/23 09:22:56;;;;;;;;;;;;;;;19.46;58.54;100348.78;5050358;28;1408;-67
2021/01/23 09:25:22;;;;;;;;;;;;;;;19.20;59.71;100347.75;5054094;28;1206;-65
2021/01/23 09:27:47;;;;;;;;;;;;;;;18.73;60.73;100351.25;5053612;28;1447;-65
2021/01/23 09:30:14;;;;;;;;;;;;;;;18.43;61.13;100349.59;5052406;28;1563;-66
2021/01/23 09:32:40;;;;;;;;;;;;;;;18.08;62.14;100348.31;5051624;28;1558;-65
2021/01/23 09:35:06;;;;;;;;;;;;;;;17.84;62.87;100336.19;5053956;28;1957;-67
2021/01/23 09:37:31;;;;;;;;;;;;;;;17.69;61.56;100329.53;5051455;28;1458;-65
2021/01/23 09:39:57;;;;;;;;;;;;;;;17.58;61.77;100324.28;5049125;28;1760;-64
2021/01/23 09:42:22;;;;;;;;;;;;;;;17.49;62.69;100336.66;5052735;28;1421;-57
2021/01/23 09:44:47;;;;;;;;;;;;;;;17.44;62.12;100334.38;5053349;28;1260;-57
2021/01/23 09:47:14;;;;;;;;;;;;;;;17.35;61.45;100345.91;5045210;28;1721;-57
2021/01/23 09:49:40;;;;;;;;;;;;;;;17.30;62.54;100346.28;5044880;28;1681;-67
2021/01/23 09:52:05;;;;;;;;;;;;;;;17.27;62.57;100335.03;5053258;28;1487;-57
2021/01/23 09:54:30;;;;;;;;;;;;;;;17.25;62.23;100334.31;5053601;28;2008;-57
2021/01/23 09:56:56;;;;;;;;;;;;;;;17.18;62.73;100325.13;5054385;28;1261;-67
2021/01/23 09:59:21;;;;;;;;;;;;;;;17.16;62.31;100332.44;5053317;28;1610;-66
2021/01/23 10:01:47;;;;;;;;;;;;;;;17.11;62.82;100335.53;5046262;28;1508;-67
2021/01/23 10:04:12;;;;;;;;;;;;;;;17.01;64.25;100322.13;5049736;28;1582;-68
2021/01/23 10:06:38;;;;;;;;;;;;;;;16.99;63.30;100329.44;5051732;28;1526;-69
2021/01/23 10:09:03;;;;;;;;;;;;;;;16.95;64.31;100321.78;5051539;28;1460;-68
2021/01/23 10:11:28;;;;;;;;;;;;;;;16.89;64.46;100315.16;5042146;28;1197;-68
2021/01/23 10:13:54;;;;;;;;;;;;;;;16.89;63.84;100320.50;5024974;28;1910;-58
2021/01/23 10:16:19;;;;;;;;;;;;;;;16.84;64.61;100309.38;5045702;28;1612;-58
2021/01/23 10:18:44;;;;;;;;;;;;;;;16.83;64.90;100318.34;5045232;28;1597;-66
2021/01/23 10:21:10;;;;;;;;;;;;;;;16.69;64.07;100307.03;5049095;28;1509;-57
2021/01/23 10:23:36;;;;;;;;;;;;;;;16.77;64.63;100321.53;5051657;28;1432;-67
2021/01/23 10:26:02;;;;;;;;;;;;;;;16.80;63.51;100313.25;5053909;28;1222;-68
2021/01/23 10:28:27;;;;;;;;;;;;;;;17.18;63.85;100307.28;5052815;28;1622;-67
2021/01/23 10:30:52;;;;;;;;;;;;;;;17.73;62.33;100306.03;5052150;28;1620;-68
2021/01/23 10:33:18;;;;;;;;;;;;;;;18.40;59.26;100297.22;5051984;28;1234;-59
2021/01/23 10:35:43;;;;;;;;;;;;;;;18.93;58.07;100295.81;5052403;28;1885;-57
2021/01/23 10:38:09;;;;;;;;;;;;;;;19.28;57.61;100289.75;5052421;28;1558;-57
2021/01/23 10:40:34;;;;;;;;;;;;;;;19.16;57.81;100282.03;5046305;28;1401;-70
2021/01/23 10:43:00;;;;;;;;;;;;;;;19.29;58.00;100279.88;5034935;28;1484;-71
2021/01/23 10:45:25;;;;;;;;;;;;;;;18.70;59.15;100279.22;5053580;28;1416;-70
2021/01/23 10:47:51;;;;;;;;;;;;;;;18.79;59.62;100275.69;5052224;28;1459;-60
2021/01/23 10:50:16;;;;;;;;;;;;;;;18.90;59.79;100272.03;5051603;28;1452;-65
2021/01/23 10:52:41;;;;;;;;;;;;;;;18.49;60.62;100271.38;5049388;28;1253;-73
2021/01/23 10:55:07;;;;;;;;;;;;;;;18.10;59.52;100279.47;5062188;28;1881;-57
2021/01/23 10:57:32;;;;;;;;;;;;;;;17.67;62.14;100275.34;5052309;28;1482;-69
2021/01/23 10:59:57;;;;;;;;;;;;;;;17.46;62.03;100273.59;5044516;28;1586;-59
2021/01/23 11:02:23;;;;;;;;;;;;;;;17.30;62.95;100260.75;5042435;28;1367;-57
2021/01/23 11:04:48;;;;;;;;;;;;;;;17.22;63.60;100254.41;5062521;28;1755;-56
2021/01/23 11:07:13;;;;;;;;;;;;;;;17.16;63.80;100255.81;5045705;28;1589;-68
2021/01/23 11:09:38;;;;;;;;;;;;;;;17.08;63.94;100245.78;5025939;28;1478;-57
2021/01/23 11:12:04;;;;;;;;;;;;;;;17.06;63.45;100238.91;5036315;28;1200;-69
2021/01/23 11:14:29;;;;;;;;;;;;;;;17.02;62.79;100249.00;5046353;28;1914;-57
2021/01/23 11:16:54;;;;;;;;;;;;;;;16.94;63.54;100230.13;5045159;28;1670;-68
2021/01/23 11:19:20;;;;;;;;;;;;;;;16.91;63.19;100235.78;5043931;28;1546;-68
2021/01/23 11:21:45;;;;;;;;;;;;;;;16.87;63.29;100237.00;5039804;28;1459;-68
2021/01/23 11:24:10;;;;;;;;;;;;;;;16.84;63.58;100232.78;5032005;28;1558;-57
2021/01/23 11:26:36;;;;;;;;;;;;;;;16.79;63.77;100242.13;5041934;28;770;-57
2021/01/23 11:29:01;;;;;;;;;;;;;;;16.79;63.34;100226.09;5043305;28;1689;-69
2021/01/23 11:31:27;;;;;;;;;;;;;;;16.73;64.71;100213.28;5026298;28;1575;-57
2021/01/23 11:33:52;;;;;;;;;;;;;;;16.69;63.69;100216.25;5059119;28;1900;-64
2021/01/23 11:36:18;;;;;;;;;;;;;;;16.65;64.09;100220.16;5043757;28;1479;-57
2021/01/23 11:38:44;;;;;;;;;;;;;;;16.68;63.56;100214.53;5044886;28;1574;-56
2021/01/23 11:41:09;;;;;;;;;;;;;;;16.68;63.33;100216.38;5042089;28;797;-69
2021/01/23 11:43:34;;;;;;;;;;;;;;;16.67;63.74;100207.53;5039498;28;1638;-69
2021/01/23 11:46:01;;;;;;;;;;;;;;;16.63;63.25;100207.91;5043252;28;1555;-56
2021/01/23 11:48:27;;;;;;;;;;;;;;;16.61;64.02;100201.84;5028205;28;1486;-68
2021/01/23 11:50:52;;;;;;;;;;;;;;;16.60;64.29;100221.53;5042503;28;1609;-70
2021/01/23 11:53:17;;;;;;;;;;;;;;;16.58;64.54;100208.31;5044542;28;1598;-69
2021/01/23 11:55:42;;;;;;;;;;;;;;;16.58;63.33;100202.97;5042620;28;1951;-57
2021/01/23 11:58:08;;;;;;;;;;;;;;;16.58;63.44;100208.31;5037075;28;1721;-68
2021/01/23 12:00:35;;;;;;;;;;;;;;;16.53;63.88;100197.19;5045426;28;1594;-57
2021/01/23 12:03:00;;;;;;;;;;;;;;;16.53;63.63;100210.53;5044762;28;1547;-69
2021/01/23 12:05:25;;;;;;;;;;;;;;;16.47;63.98;100187.03;5043030;28;1613;-57
2021/01/23 12:07:51;;;;;;;;;;;;;;;16.42;63.93;100187.44;5047596;28;886;-69
2021/01/23 12:10:16;;;;;;;;;;;;;;;16.40;64.33;100184.06;5049677;28;1880;-69
2021/01/23 12:12:41;;;;;;;;;;;;;;;16.41;63.61;100185.78;5038610;28;1769;-57
2021/01/23 12:15:07;;;;;;;;;;;;;;;16.37;64.34;100189.66;5046755;28;1944;-69
2021/01/23 12:17:33;;;;;;;;;;;;;;;16.37;63.36;100188.81;5045205;28;1716;-56
2021/01/23 12:19:58;;;;;;;;;;;;;;;16.33;64.40;100184.72;5049489;28;829;-69
2021/01/23 12:22:23;;;;;;;;;;;;;;;16.30;63.50;100184.00;5049489;28;1689;-56
2021/01/23 12:24:48;;;;;;;;;;;;;;;16.32;63.97;100183.06;5042908;28;1697;-57
2021/01/23 12:27:14;;;;;;;;;;;;;;;16.28;63.78;100185.97;5054741;28;1401;-68
2021/01/23 12:29:39;;;;;;;;;;;;;;;16.29;64.85;100177.00;5045105;28;870;-68
2021/01/23 12:32:06;;;;;;;;;;;;;;;16.30;64.62;100178.69;5050958;28;1701;-56
2021/01/23 12:34:32;;;;;;;;;;;;;;;16.28;64.22;100172.63;5047465;28;1953;-65
2021/01/23 12:36:57;;;;;;;;;;;;;;;16.27;63.67;100173.63;5046771;28;1507;-69
2021/01/23 12:39:22;;;;;;;;;;;;;;;16.29;64.65;100174.34;5029311;28;1588;-69
2021/01/23 12:41:47;;;;;;;;;;;;;;;16.24;64.69;100151.69;5041654;28;836;-56
2021/01/23 12:44:13;;;;;;;;;;;;;;;16.25;64.54;100164.91;5046713;28;1705;-57
2021/01/23 12:46:38;;;;;;;;;;;;;;;16.24;64.86;100157.03;5029172;28;1646;-57
2021/01/23 12:49:03;;;;;;;;;;;;;;;16.24;64.78;100163.19;5028830;28;1485;-57